首页
METAR-TAF:

METAR-TAF

机场 :

杰克逊, 密西西比州, 美国

纬度: 32-19-11N, 经度: 090-04-39W, 海拔: 105米

当前天气观测

该预报发布于35分钟前的04:54 UTC
风速9节,风向东南
温度 23°C
湿度 78%
气压 1013 hPa
能見度: 16.1公里
天空无云

METAR: KJAN 250454Z AUTO 14009KT 10SM CLR 23/19 A2991 RMK AO2 SLP125 T02330189

时间: 00:29 (05:29 UTC)

预报

该预报发布于5小时和55分钟前的23:34 UTC
预报有效从25日的 00点(UTC)到 25日的 24点(UTC)
风速7节,风向东南
能見度: 10公里
少量云层高于5000英尺
多云层高于25000英尺
从 25日的 1600点(UTC)
风速8节,风向东南
能見度: 10公里
多云层高于5000英尺, 积雨云.
附近有雷暴

TAF: KJAN 242334Z 2500/2524 13007KT P6SM FEW050 BKN250 FM251600 14008KT P6SM VCTS BKN050CB

超过4000个机场的气象观测和天气预报(METAR&TAF报告)。

可查询的气象台以黄色和红色小点在地图上表示。

将鼠标移到小点上方,可查看气象台名称。

然后点击查看天气观测和预报。

如需切换地图:点击带黑十字的绿色按钮放大地图;点击带横线的绿色按钮缩小地图;或者点击绿色箭头查看邻近地区的地图。


METAR-TAF: